sensor_id;sensor_type;location;lat;lon;timestamp;P1;durP1;ratioP1;P2;durP2;ratioP2
26908;SDS011;14477;51.038;4.588;2023-02-01T00:01:19;6.10;;;2.53;;
26908;SDS011;14477;51.038;4.588;2023-02-01T00:03:45;6.72;;;2.58;;
26908;SDS011;14477;51.038;4.588;2023-02-01T00:06:11;7.17;;;2.60;;
26908;SDS011;14477;51.038;4.588;2023-02-01T00:08:37;4.78;;;2.15;;
26908;SDS011;14477;51.038;4.588;2023-02-01T00:11:04;8.53;;;2.60;;
26908;SDS011;14477;51.038;4.588;2023-02-01T00:13:35;4.88;;;2.60;;
26908;SDS011;14477;51.038;4.588;2023-02-01T00:16:27;8.38;;;2.88;;
26908;SDS011;14477;51.038;4.588;2023-02-01T00:18:57;5.00;;;2.30;;
26908;SDS011;14477;51.038;4.588;2023-02-01T00:21:24;7.13;;;2.33;;
26908;SDS011;14477;51.038;4.588;2023-02-01T00:23:50;4.73;;;1.77;;
26908;SDS011;14477;51.038;4.588;2023-02-01T00:26:16;5.00;;;2.25;;
26908;SDS011;14477;51.038;4.588;2023-02-01T00:28:45;4.70;;;2.30;;
26908;SDS011;14477;51.038;4.588;2023-02-01T00:31:11;5.10;;;2.50;;
26908;SDS011;14477;51.038;4.588;2023-02-01T00:33:37;8.88;;;2.40;;
26908;SDS011;14477;51.038;4.588;2023-02-01T00:36:03;5.03;;;2.37;;
26908;SDS011;14477;51.038;4.588;2023-02-01T00:38:31;5.30;;;2.60;;
26908;SDS011;14477;51.038;4.588;2023-02-01T00:41:05;6.35;;;2.42;;
26908;SDS011;14477;51.038;4.588;2023-02-01T00:43:36;5.68;;;2.17;;
26908;SDS011;14477;51.038;4.588;2023-02-01T00:46:02;7.30;;;2.40;;
26908;SDS011;14477;51.038;4.588;2023-02-01T00:48:28;6.15;;;2.30;;
26908;SDS011;14477;51.038;4.588;2023-02-01T00:50:54;5.40;;;1.90;;
26908;SDS011;14477;51.038;4.588;2023-02-01T00:53:23;5.28;;;2.00;;
26908;SDS011;14477;51.038;4.588;2023-02-01T00:55:49;7.20;;;2.30;;
26908;SDS011;14477;51.038;4.588;2023-02-01T00:58:14;3.88;;;1.70;;
26908;SDS011;14477;51.038;4.588;2023-02-01T01:00:40;6.17;;;2.50;;
26908;SDS011;14477;51.038;4.588;2023-02-01T01:03:06;7.82;;;1.90;;
26908;SDS011;14477;51.038;4.588;2023-02-01T01:05:49;5.65;;;2.00;;
26908;SDS011;14477;51.038;4.588;2023-02-01T01:08:15;7.67;;;2.00;;
26908;SDS011;14477;51.038;4.588;2023-02-01T01:10:41;3.97;;;2.05;;
26908;SDS011;14477;51.038;4.588;2023-02-01T01:13:07;5.25;;;1.80;;
26908;SDS011;14477;51.038;4.588;2023-02-01T01:15:40;5.70;;;1.80;;
26908;SDS011;14477;51.038;4.588;2023-02-01T01:18:06;5.25;;;1.80;;
26908;SDS011;14477;51.038;4.588;2023-02-01T01:20:37;7.60;;;1.80;;
26908;SDS011;14477;51.038;4.588;2023-02-01T01:23:04;6.85;;;2.20;;
26908;SDS011;14477;51.038;4.588;2023-02-01T01:25:30;4.88;;;1.63;;
26908;SDS011;14477;51.038;4.588;2023-02-01T01:27:57;4.35;;;1.50;;
26908;SDS011;14477;51.038;4.588;2023-02-01T01:30:23;5.35;;;1.85;;
26908;SDS011;14477;51.038;4.588;2023-02-01T01:32:49;6.30;;;1.80;;
26908;SDS011;14477;51.038;4.588;2023-02-01T01:35:15;5.55;;;1.65;;
26908;SDS011;14477;51.038;4.588;2023-02-01T01:37:41;4.72;;;1.60;;
26908;SDS011;14477;51.038;4.588;2023-02-01T01:40:06;6.57;;;1.80;;
26908;SDS011;14477;51.038;4.588;2023-02-01T01:42:38;4.80;;;1.92;;
26908;SDS011;14477;51.038;4.588;2023-02-01T01:47:54;8.47;;;2.10;;
26908;SDS011;14477;51.038;4.588;2023-02-01T01:50:31;7.78;;;2.42;;
26908;SDS011;14477;51.038;4.588;2023-02-01T01:53:03;9.02;;;1.88;;
26908;SDS011;14477;51.038;4.588;2023-02-01T01:55:32;4.32;;;1.88;;
26908;SDS011;14477;51.038;4.588;2023-02-01T01:58:08;4.88;;;1.73;;
26908;SDS011;14477;51.038;4.588;2023-02-01T02:00:37;11.70;;;2.40;;
26908;SDS011;14477;51.038;4.588;2023-02-01T02:03:07;5.10;;;1.63;;
26908;SDS011;14477;51.038;4.588;2023-02-01T02:05:44;5.90;;;1.52;;
26908;SDS011;14477;51.038;4.588;2023-02-01T02:08:12;7.95;;;1.65;;
26908;SDS011;14477;51.038;4.588;2023-02-01T02:10:38;5.05;;;1.30;;
26908;SDS011;14477;51.038;4.588;2023-02-01T02:13:23;5.10;;;1.70;;
26908;SDS011;14477;51.038;4.588;2023-02-01T02:18:53;5.43;;;1.67;;
26908;SDS011;14477;51.038;4.588;2023-02-01T02:38:48;5.63;;;1.52;;
26908;SDS011;14477;51.038;4.588;2023-02-01T02:41:26;4.30;;;1.27;;
26908;SDS011;14477;51.038;4.588;2023-02-01T02:44:13;4.25;;;1.20;;
26908;SDS011;14477;51.038;4.588;2023-02-01T02:47:13;8.30;;;1.45;;
26908;SDS011;14477;51.038;4.588;2023-02-01T02:49:55;7.60;;;1.63;;
26908;SDS011;14477;51.038;4.588;2023-02-01T02:53:18;7.75;;;1.38;;
26908;SDS011;14477;51.038;4.588;2023-02-01T02:55:58;5.43;;;1.13;;
26908;SDS011;14477;51.038;4.588;2023-02-01T02:58:44;5.28;;;1.33;;
26908;SDS011;14477;51.038;4.588;2023-02-01T03:01:31;5.85;;;1.25;;
26908;SDS011;14477;51.038;4.588;2023-02-01T03:04:16;8.27;;;1.45;;
26908;SDS011;14477;51.038;4.588;2023-02-01T03:06:45;5.13;;;1.65;;
26908;SDS011;14477;51.038;4.588;2023-02-01T03:09:22;5.37;;;1.40;;
26908;SDS011;14477;51.038;4.588;2023-02-01T03:11:58;8.25;;;1.67;;
26908;SDS011;14477;51.038;4.588;2023-02-01T03:14:50;5.55;;;1.25;;
26908;SDS011;14477;51.038;4.588;2023-02-01T03:17:21;5.72;;;1.73;;
26908;SDS011;14477;51.038;4.588;2023-02-01T03:19:53;4.32;;;1.40;;
26908;SDS011;14477;51.038;4.588;2023-02-01T03:22:24;4.87;;;1.23;;
26908;SDS011;14477;51.038;4.588;2023-02-01T03:24:59;5.53;;;1.50;;
26908;SDS011;14477;51.038;4.588;2023-02-01T03:27:41;5.93;;;1.40;;
26908;SDS011;14477;51.038;4.588;2023-02-01T03:32:56;9.30;;;1.70;;
26908;SDS011;14477;51.038;4.588;2023-02-01T03:35:30;6.80;;;1.43;;
26908;SDS011;14477;51.038;4.588;2023-02-01T03:38:32;5.10;;;1.70;;
26908;SDS011;14477;51.038;4.588;2023-02-01T03:43:57;4.38;;;1.38;;
26908;SDS011;14477;51.038;4.588;2023-02-01T03:46:51;4.75;;;1.20;;
26908;SDS011;14477;51.038;4.588;2023-02-01T03:49:32;6.37;;;1.87;;
26908;SDS011;14477;51.038;4.588;2023-02-01T03:51:59;6.85;;;1.90;;
26908;SDS011;14477;51.038;4.588;2023-02-01T03:54:25;6.70;;;1.70;;
26908;SDS011;14477;51.038;4.588;2023-02-01T03:56:54;5.38;;;1.42;;
26908;SDS011;14477;51.038;4.588;2023-02-01T03:59:22;4.72;;;1.60;;
26908;SDS011;14477;51.038;4.588;2023-02-01T04:01:49;7.93;;;1.70;;
26908;SDS011;14477;51.038;4.588;2023-02-01T04:04:15;5.53;;;1.40;;
26908;SDS011;14477;51.038;4.588;2023-02-01T04:06:51;7.68;;;1.48;;
26908;SDS011;14477;51.038;4.588;2023-02-01T04:09:17;6.68;;;2.28;;
26908;SDS011;14477;51.038;4.588;2023-02-01T04:11:43;4.10;;;1.20;;
26908;SDS011;14477;51.038;4.588;2023-02-01T04:14:08;7.17;;;1.60;;
26908;SDS011;14477;51.038;4.588;2023-02-01T04:16:34;4.63;;;1.30;;
26908;SDS011;14477;51.038;4.588;2023-02-01T04:19:00;3.50;;;1.40;;
26908;SDS011;14477;51.038;4.588;2023-02-01T04:21:26;5.65;;;1.38;;
26908;SDS011;14477;51.038;4.588;2023-02-01T04:23:53;5.25;;;1.40;;
26908;SDS011;14477;51.038;4.588;2023-02-01T04:26:19;5.43;;;1.60;;
26908;SDS011;14477;51.038;4.588;2023-02-01T04:28:47;9.75;;;1.52;;
26908;SDS011;14477;51.038;4.588;2023-02-01T04:31:13;6.50;;;1.40;;
26908;SDS011;14477;51.038;4.588;2023-02-01T04:33:43;5.03;;;1.27;;
26908;SDS011;14477;51.038;4.588;2023-02-01T04:36:09;4.75;;;1.20;;
26908;SDS011;14477;51.038;4.588;2023-02-01T04:38:35;4.50;;;1.27;;
26908;SDS011;14477;51.038;4.588;2023-02-01T04:41:00;7.38;;;1.42;;
26908;SDS011;14477;51.038;4.588;2023-02-01T04:43:28;6.60;;;1.42;;
26908;SDS011;14477;51.038;4.588;2023-02-01T04:45:54;5.50;;;1.70;;
26908;SDS011;14477;51.038;4.588;2023-02-01T04:48:20;5.70;;;1.60;;
26908;SDS011;14477;51.038;4.588;2023-02-01T04:50:48;7.15;;;1.40;;
26908;SDS011;14477;51.038;4.588;2023-02-01T04:53:14;5.65;;;1.55;;
26908;SDS011;14477;51.038;4.588;2023-02-01T04:55:40;7.40;;;1.40;;
26908;SDS011;14477;51.038;4.588;2023-02-01T04:58:07;7.55;;;1.80;;
26908;SDS011;14477;51.038;4.588;2023-02-01T05:00:33;5.53;;;1.47;;
26908;SDS011;14477;51.038;4.588;2023-02-01T05:02:59;8.65;;;1.50;;
26908;SDS011;14477;51.038;4.588;2023-02-01T05:05:25;5.38;;;1.40;;
26908;SDS011;14477;51.038;4.588;2023-02-01T05:07:51;5.88;;;1.45;;
26908;SDS011;14477;51.038;4.588;2023-02-01T05:10:17;5.17;;;1.30;;
26908;SDS011;14477;51.038;4.588;2023-02-01T05:12:43;7.20;;;1.30;;
26908;SDS011;14477;51.038;4.588;2023-02-01T05:15:30;6.32;;;1.30;;
26908;SDS011;14477;51.038;4.588;2023-02-01T05:17:57;4.72;;;1.67;;
26908;SDS011;14477;51.038;4.588;2023-02-01T05:20:23;4.38;;;1.40;;
26908;SDS011;14477;51.038;4.588;2023-02-01T05:22:49;8.47;;;1.53;;
26908;SDS011;14477;51.038;4.588;2023-02-01T05:25:16;9.35;;;1.52;;
26908;SDS011;14477;51.038;4.588;2023-02-01T05:27:42;5.85;;;1.60;;
26908;SDS011;14477;51.038;4.588;2023-02-01T05:30:08;10.23;;;1.83;;
26908;SDS011;14477;51.038;4.588;2023-02-01T05:32:35;6.57;;;1.30;;
26908;SDS011;14477;51.038;4.588;2023-02-01T05:35:00;6.53;;;1.40;;
26908;SDS011;14477;51.038;4.588;2023-02-01T05:37:26;5.97;;;1.33;;
26908;SDS011;14477;51.038;4.588;2023-02-01T05:39:52;6.57;;;1.20;;
26908;SDS011;14477;51.038;4.588;2023-02-01T05:42:19;5.07;;;1.35;;
26908;SDS011;14477;51.038;4.588;2023-02-01T05:44:45;5.63;;;1.33;;
26908;SDS011;14477;51.038;4.588;2023-02-01T05:47:11;6.80;;;1.30;;
26908;SDS011;14477;51.038;4.588;2023-02-01T05:49:37;5.75;;;1.50;;
26908;SDS011;14477;51.038;4.588;2023-02-01T05:52:03;6.20;;;1.42;;
26908;SDS011;14477;51.038;4.588;2023-02-01T05:54:29;7.27;;;1.50;;
26908;SDS011;14477;51.038;4.588;2023-02-01T05:56:55;9.05;;;1.42;;
26908;SDS011;14477;51.038;4.588;2023-02-01T05:59:22;5.85;;;1.85;;
26908;SDS011;14477;51.038;4.588;2023-02-01T06:01:48;6.47;;;1.63;;
26908;SDS011;14477;51.038;4.588;2023-02-01T06:04:14;6.50;;;1.48;;
26908;SDS011;14477;51.038;4.588;2023-02-01T06:06:40;7.15;;;1.88;;
26908;SDS011;14477;51.038;4.588;2023-02-01T06:09:07;6.35;;;1.30;;
26908;SDS011;14477;51.038;4.588;2023-02-01T06:11:32;6.47;;;1.30;;
26908;SDS011;14477;51.038;4.588;2023-02-01T06:13:58;5.73;;;1.67;;
26908;SDS011;14477;51.038;4.588;2023-02-01T06:16:24;7.63;;;1.93;;
26908;SDS011;14477;51.038;4.588;2023-02-01T06:18:50;6.68;;;1.40;;
26908;SDS011;14477;51.038;4.588;2023-02-01T06:21:17;8.02;;;1.83;;
26908;SDS011;14477;51.038;4.588;2023-02-01T06:23:54;6.07;;;1.73;;
26908;SDS011;14477;51.038;4.588;2023-02-01T06:26:22;5.57;;;1.25;;
26908;SDS011;14477;51.038;4.588;2023-02-01T06:28:48;5.77;;;1.20;;
26908;SDS011;14477;51.038;4.588;2023-02-01T06:31:14;5.72;;;1.50;;
26908;SDS011;14477;51.038;4.588;2023-02-01T06:33:40;6.80;;;1.50;;
26908;SDS011;14477;51.038;4.588;2023-02-01T06:36:06;7.70;;;1.60;;
26908;SDS011;14477;51.038;4.588;2023-02-01T06:38:34;5.25;;;1.27;;
26908;SDS011;14477;51.038;4.588;2023-02-01T06:41:00;6.97;;;1.40;;
26908;SDS011;14477;51.038;4.588;2023-02-01T06:43:27;7.88;;;1.70;;
26908;SDS011;14477;51.038;4.588;2023-02-01T06:45:53;4.90;;;1.53;;
26908;SDS011;14477;51.038;4.588;2023-02-01T06:48:23;7.13;;;1.40;;
26908;SDS011;14477;51.038;4.588;2023-02-01T06:50:49;6.73;;;1.57;;
26908;SDS011;14477;51.038;4.588;2023-02-01T06:53:15;5.65;;;1.40;;
26908;SDS011;14477;51.038;4.588;2023-02-01T06:55:41;4.35;;;1.20;;
26908;SDS011;14477;51.038;4.588;2023-02-01T06:58:07;6.63;;;1.50;;
26908;SDS011;14477;51.038;4.588;2023-02-01T07:00:32;6.40;;;1.95;;
26908;SDS011;14477;51.038;4.588;2023-02-01T07:02:58;5.90;;;1.42;;
26908;SDS011;14477;51.038;4.588;2023-02-01T07:05:25;7.00;;;1.40;;
26908;SDS011;14477;51.038;4.588;2023-02-01T07:07:52;7.65;;;1.67;;
26908;SDS011;14477;51.038;4.588;2023-02-01T07:10:18;6.43;;;1.90;;
26908;SDS011;14477;51.038;4.588;2023-02-01T07:12:44;5.50;;;1.48;;
26908;SDS011;14477;51.038;4.588;2023-02-01T07:15:10;8.13;;;1.60;;
26908;SDS011;14477;51.038;4.588;2023-02-01T07:17:36;6.32;;;1.60;;
26908;SDS011;14477;51.038;4.588;2023-02-01T07:20:01;5.90;;;1.60;;
26908;SDS011;14477;51.038;4.588;2023-02-01T07:22:28;5.55;;;1.70;;
26908;SDS011;14477;51.038;4.588;2023-02-01T07:24:54;7.22;;;2.10;;
26908;SDS011;14477;51.038;4.588;2023-02-01T07:27:20;5.37;;;1.30;;
26908;SDS011;14477;51.038;4.588;2023-02-01T07:29:45;7.45;;;1.65;;
26908;SDS011;14477;51.038;4.588;2023-02-01T07:32:11;8.17;;;1.60;;
26908;SDS011;14477;51.038;4.588;2023-02-01T07:34:37;6.68;;;1.55;;
26908;SDS011;14477;51.038;4.588;2023-02-01T07:37:02;4.73;;;1.57;;
26908;SDS011;14477;51.038;4.588;2023-02-01T07:39:28;6.70;;;1.60;;
26908;SDS011;14477;51.038;4.588;2023-02-01T07:41:57;6.07;;;1.43;;
26908;SDS011;14477;51.038;4.588;2023-02-01T07:44:22;8.15;;;2.33;;
26908;SDS011;14477;51.038;4.588;2023-02-01T07:46:49;6.40;;;1.43;;
26908;SDS011;14477;51.038;4.588;2023-02-01T07:49:15;8.75;;;1.73;;
26908;SDS011;14477;51.038;4.588;2023-02-01T07:51:42;7.78;;;1.65;;
26908;SDS011;14477;51.038;4.588;2023-02-01T07:54:08;7.72;;;1.60;;
26908;SDS011;14477;51.038;4.588;2023-02-01T07:56:34;8.15;;;1.60;;
26908;SDS011;14477;51.038;4.588;2023-02-01T07:59:00;6.73;;;1.50;;
26908;SDS011;14477;51.038;4.588;2023-02-01T08:01:27;8.80;;;1.73;;
26908;SDS011;14477;51.038;4.588;2023-02-01T08:03:54;5.45;;;1.60;;
26908;SDS011;14477;51.038;4.588;2023-02-01T08:06:22;8.52;;;2.10;;
26908;SDS011;14477;51.038;4.588;2023-02-01T08:08:49;6.78;;;2.08;;
26908;SDS011;14477;51.038;4.588;2023-02-01T08:11:15;5.73;;;1.50;;
26908;SDS011;14477;51.038;4.588;2023-02-01T08:13:41;6.38;;;1.33;;
26908;SDS011;14477;51.038;4.588;2023-02-01T08:16:08;5.55;;;1.50;;
26908;SDS011;14477;51.038;4.588;2023-02-01T08:18:36;8.63;;;2.25;;
26908;SDS011;14477;51.038;4.588;2023-02-01T08:21:06;7.43;;;1.80;;
26908;SDS011;14477;51.038;4.588;2023-02-01T08:23:34;7.70;;;1.77;;
26908;SDS011;14477;51.038;4.588;2023-02-01T08:28:45;4.07;;;1.40;;
26908;SDS011;14477;51.038;4.588;2023-02-01T08:31:13;3.72;;;1.55;;
26908;SDS011;14477;51.038;4.588;2023-02-01T08:33:41;7.63;;;1.50;;
26908;SDS011;14477;51.038;4.588;2023-02-01T08:36:10;4.83;;;1.63;;
26908;SDS011;14477;51.038;4.588;2023-02-01T08:38:37;6.55;;;1.52;;
26908;SDS011;14477;51.038;4.588;2023-02-01T08:41:14;7.85;;;1.45;;
26908;SDS011;14477;51.038;4.588;2023-02-01T08:43:42;5.68;;;1.55;;
26908;SDS011;14477;51.038;4.588;2023-02-01T08:46:09;7.88;;;1.80;;
26908;SDS011;14477;51.038;4.588;2023-02-01T08:48:36;11.83;;;2.87;;
26908;SDS011;14477;51.038;4.588;2023-02-01T08:51:06;6.85;;;1.95;;
26908;SDS011;14477;51.038;4.588;2023-02-01T08:53:33;5.45;;;1.75;;
26908;SDS011;14477;51.038;4.588;2023-02-01T08:56:00;8.27;;;2.40;;
26908;SDS011;14477;51.038;4.588;2023-02-01T08:58:28;7.03;;;2.00;;
26908;SDS011;14477;51.038;4.588;2023-02-01T09:00:53;9.73;;;2.00;;
26908;SDS011;14477;51.038;4.588;2023-02-01T09:03:19;7.10;;;1.67;;
26908;SDS011;14477;51.038;4.588;2023-02-01T09:05:45;5.57;;;1.50;;
26908;SDS011;14477;51.038;4.588;2023-02-01T09:08:11;5.60;;;1.80;;
26908;SDS011;14477;51.038;4.588;2023-02-01T09:10:40;7.17;;;1.60;;
26908;SDS011;14477;51.038;4.588;2023-02-01T09:13:07;5.03;;;1.80;;
26908;SDS011;14477;51.038;4.588;2023-02-01T09:15:34;6.20;;;1.95;;
26908;SDS011;14477;51.038;4.588;2023-02-01T09:18:00;6.95;;;1.65;;
26908;SDS011;14477;51.038;4.588;2023-02-01T09:20:26;7.05;;;1.90;;
26908;SDS011;14477;51.038;4.588;2023-02-01T09:22:52;8.20;;;2.17;;
26908;SDS011;14477;51.038;4.588;2023-02-01T09:25:20;5.95;;;1.70;;
26908;SDS011;14477;51.038;4.588;2023-02-01T09:27:46;6.13;;;1.80;;
26908;SDS011;14477;51.038;4.588;2023-02-01T09:30:12;5.45;;;1.70;;
26908;SDS011;14477;51.038;4.588;2023-02-01T09:32:37;10.27;;;2.40;;
26908;SDS011;14477;51.038;4.588;2023-02-01T09:35:03;5.85;;;2.00;;
26908;SDS011;14477;51.038;4.588;2023-02-01T09:37:29;8.27;;;2.60;;
26908;SDS011;14477;51.038;4.588;2023-02-01T09:39:55;6.33;;;2.20;;
26908;SDS011;14477;51.038;4.588;2023-02-01T09:47:50;10.23;;;2.10;;
26908;SDS011;14477;51.038;4.588;2023-02-01T09:50:24;7.47;;;1.80;;
26908;SDS011;14477;51.038;4.588;2023-02-01T09:55:51;4.82;;;1.70;;
26908;SDS011;14477;51.038;4.588;2023-02-01T09:58:32;8.13;;;1.57;;
26908;SDS011;14477;51.038;4.588;2023-02-01T10:01:00;5.68;;;1.63;;
26908;SDS011;14477;51.038;4.588;2023-02-01T10:03:28;8.68;;;2.00;;
26908;SDS011;14477;51.038;4.588;2023-02-01T10:11:18;7.10;;;1.90;;
26908;SDS011;14477;51.038;4.588;2023-02-01T10:17:08;6.30;;;1.80;;
26908;SDS011;14477;51.038;4.588;2023-02-01T10:27:44;6.18;;;1.75;;
26908;SDS011;14477;51.038;4.588;2023-02-01T10:33:00;8.20;;;1.63;;
26908;SDS011;14477;51.038;4.588;2023-02-01T10:35:39;8.75;;;1.98;;
26908;SDS011;14477;51.038;4.588;2023-02-01T10:38:09;7.23;;;1.70;;
26908;SDS011;14477;51.038;4.588;2023-02-01T10:40:43;6.90;;;1.60;;
26908;SDS011;14477;51.038;4.588;2023-02-01T10:43:09;6.65;;;1.40;;
26908;SDS011;14477;51.038;4.588;2023-02-01T10:45:36;7.07;;;1.67;;
26908;SDS011;14477;51.038;4.588;2023-02-01T10:48:04;5.43;;;1.27;;
26908;SDS011;14477;51.038;4.588;2023-02-01T10:54:01;4.65;;;1.20;;
26908;SDS011;14477;51.038;4.588;2023-02-01T10:56:21;5.68;;;1.45;;
26908;SDS011;14477;51.038;4.588;2023-02-01T10:58:52;6.05;;;1.52;;
26908;SDS011;14477;51.038;4.588;2023-02-01T11:01:37;5.33;;;1.33;;
26908;SDS011;14477;51.038;4.588;2023-02-01T11:04:18;7.65;;;1.60;;
26908;SDS011;14477;51.038;4.588;2023-02-01T11:06:46;5.28;;;1.60;;
26908;SDS011;14477;51.038;4.588;2023-02-01T11:16:49;5.90;;;1.30;;
26908;SDS011;14477;51.038;4.588;2023-02-01T11:19:18;5.75;;;1.40;;
26908;SDS011;14477;51.038;4.588;2023-02-01T11:21:48;5.53;;;1.50;;
26908;SDS011;14477;51.038;4.588;2023-02-01T11:24:21;5.33;;;1.10;;
26908;SDS011;14477;51.038;4.588;2023-02-01T11:26:48;6.00;;;1.50;;
26908;SDS011;14477;51.038;4.588;2023-02-01T11:29:18;6.55;;;1.35;;
26908;SDS011;14477;51.038;4.588;2023-02-01T11:31:48;7.13;;;1.40;;
26908;SDS011;14477;51.038;4.588;2023-02-01T11:34:16;6.15;;;1.40;;
26908;SDS011;14477;51.038;4.588;2023-02-01T11:36:45;5.60;;;1.20;;
26908;SDS011;14477;51.038;4.588;2023-02-01T11:41:56;4.80;;;1.48;;
26908;SDS011;14477;51.038;4.588;2023-02-01T11:44:49;8.27;;;1.53;;
26908;SDS011;14477;51.038;4.588;2023-02-01T11:49:48;6.70;;;1.35;;
26908;SDS011;14477;51.038;4.588;2023-02-01T12:17:38;4.70;;;1.10;;
26908;SDS011;14477;51.038;4.588;2023-02-01T12:25:39;4.77;;;1.00;;
26908;SDS011;14477;51.038;4.588;2023-02-01T12:44:05;6.05;;;1.48;;
26908;SDS011;14477;51.038;4.588;2023-02-01T12:46:42;4.00;;;1.30;;
26908;SDS011;14477;51.038;4.588;2023-02-01T12:49:14;5.50;;;1.45;;
26908;SDS011;14477;51.038;4.588;2023-02-01T12:51:42;5.47;;;1.10;;
26908;SDS011;14477;51.038;4.588;2023-02-01T12:59:24;5.45;;;1.30;;
26908;SDS011;14477;51.038;4.588;2023-02-01T13:01:58;3.35;;;1.30;;
26908;SDS011;14477;51.038;4.588;2023-02-01T13:04:59;3.43;;;0.90;;
26908;SDS011;14477;51.038;4.588;2023-02-01T13:07:37;2.42;;;0.95;;
26908;SDS011;14477;51.038;4.588;2023-02-01T13:13:18;3.50;;;1.08;;
26908;SDS011;14477;51.038;4.588;2023-02-01T13:16:11;3.45;;;1.15;;
26908;SDS011;14477;51.038;4.588;2023-02-01T13:18:42;4.40;;;1.07;;
26908;SDS011;14477;51.038;4.588;2023-02-01T13:21:16;3.75;;;1.10;;
26908;SDS011;14477;51.038;4.588;2023-02-01T13:23:54;5.38;;;1.10;;
26908;SDS011;14477;51.038;4.588;2023-02-01T13:26:20;5.25;;;1.20;;
26908;SDS011;14477;51.038;4.588;2023-02-01T13:28:49;4.72;;;1.05;;
26908;SDS011;14477;51.038;4.588;2023-02-01T13:34:26;5.32;;;1.27;;
26908;SDS011;14477;51.038;4.588;2023-02-01T13:42:46;3.67;;;0.88;;
26908;SDS011;14477;51.038;4.588;2023-02-01T13:45:36;2.57;;;0.80;;
26908;SDS011;14477;51.038;4.588;2023-02-01T13:48:14;2.80;;;1.00;;
26908;SDS011;14477;51.038;4.588;2023-02-01T13:50:52;3.20;;;1.00;;
26908;SDS011;14477;51.038;4.588;2023-02-01T13:53:23;4.78;;;1.20;;
26908;SDS011;14477;51.038;4.588;2023-02-01T13:58:41;3.50;;;0.90;;
26908;SDS011;14477;51.038;4.588;2023-02-01T14:03:46;3.83;;;1.10;;
26908;SDS011;14477;51.038;4.588;2023-02-01T14:11:40;2.37;;;0.80;;
26908;SDS011;14477;51.038;4.588;2023-02-01T14:16:41;4.82;;;1.00;;
26908;SDS011;14477;51.038;4.588;2023-02-01T14:19:26;4.22;;;1.02;;
26908;SDS011;14477;51.038;4.588;2023-02-01T14:21:59;4.25;;;1.10;;
26908;SDS011;14477;51.038;4.588;2023-02-01T14:24:49;5.77;;;1.27;;
26908;SDS011;14477;51.038;4.588;2023-02-01T14:27:20;4.95;;;0.90;;
26908;SDS011;14477;51.038;4.588;2023-02-01T14:29:52;2.47;;;1.00;;
26908;SDS011;14477;51.038;4.588;2023-02-01T14:32:25;4.05;;;1.10;;
26908;SDS011;14477;51.038;4.588;2023-02-01T14:35:06;3.90;;;1.15;;
26908;SDS011;14477;51.038;4.588;2023-02-01T14:37:36;3.27;;;1.10;;
26908;SDS011;14477;51.038;4.588;2023-02-01T14:40:04;2.97;;;1.00;;
26908;SDS011;14477;51.038;4.588;2023-02-01T14:50:39;3.75;;;0.95;;
26908;SDS011;14477;51.038;4.588;2023-02-01T14:58:35;4.20;;;1.23;;
26908;SDS011;14477;51.038;4.588;2023-02-01T15:01:26;4.28;;;1.30;;
26908;SDS011;14477;51.038;4.588;2023-02-01T15:06:56;4.03;;;1.20;;
26908;SDS011;14477;51.038;4.588;2023-02-01T15:09:39;5.13;;;1.17;;
26908;SDS011;14477;51.038;4.588;2023-02-01T15:14:43;7.20;;;1.30;;
26908;SDS011;14477;51.038;4.588;2023-02-01T15:20:20;4.87;;;1.00;;
26908;SDS011;14477;51.038;4.588;2023-02-01T15:22:58;4.93;;;1.45;;
26908;SDS011;14477;51.038;4.588;2023-02-01T15:25:33;4.85;;;1.10;;
26908;SDS011;14477;51.038;4.588;2023-02-01T15:28:04;3.80;;;1.00;;
26908;SDS011;14477;51.038;4.588;2023-02-01T15:30:32;3.53;;;1.15;;
26908;SDS011;14477;51.038;4.588;2023-02-01T15:33:32;3.57;;;1.13;;
26908;SDS011;14477;51.038;4.588;2023-02-01T15:36:06;4.90;;;1.10;;
26908;SDS011;14477;51.038;4.588;2023-02-01T15:38:41;4.85;;;0.95;;
26908;SDS011;14477;51.038;4.588;2023-02-01T15:43:39;3.03;;;0.95;;
26908;SDS011;14477;51.038;4.588;2023-02-01T15:46:14;3.03;;;1.03;;
26908;SDS011;14477;51.038;4.588;2023-02-01T15:48:48;4.65;;;1.23;;
26908;SDS011;14477;51.038;4.588;2023-02-01T15:51:20;3.58;;;1.02;;
26908;SDS011;14477;51.038;4.588;2023-02-01T15:53:50;5.78;;;1.20;;
26908;SDS011;14477;51.038;4.588;2023-02-01T15:56:27;4.03;;;1.10;;
26908;SDS011;14477;51.038;4.588;2023-02-01T15:58:58;5.97;;;1.20;;
26908;SDS011;14477;51.038;4.588;2023-02-01T16:01:26;4.75;;;1.30;;
26908;SDS011;14477;51.038;4.588;2023-02-01T16:06:51;4.93;;;1.15;;
26908;SDS011;14477;51.038;4.588;2023-02-01T16:09:20;4.18;;;1.10;;
26908;SDS011;14477;51.038;4.588;2023-02-01T16:11:48;6.57;;;1.20;;
26908;SDS011;14477;51.038;4.588;2023-02-01T16:14:18;4.28;;;1.05;;
26908;SDS011;14477;51.038;4.588;2023-02-01T16:16:43;5.75;;;1.30;;
26908;SDS011;14477;51.038;4.588;2023-02-01T16:19:10;3.50;;;1.20;;
26908;SDS011;14477;51.038;4.588;2023-02-01T16:21:35;7.07;;;1.57;;
26908;SDS011;14477;51.038;4.588;2023-02-01T16:24:01;4.32;;;1.30;;
26908;SDS011;14477;51.038;4.588;2023-02-01T16:26:29;5.95;;;1.13;;
26908;SDS011;14477;51.038;4.588;2023-02-01T16:28:58;5.30;;;1.10;;
26908;SDS011;14477;51.038;4.588;2023-02-01T16:31:30;4.90;;;1.17;;
26908;SDS011;14477;51.038;4.588;2023-02-01T16:33:57;3.63;;;1.20;;
26908;SDS011;14477;51.038;4.588;2023-02-01T16:36:24;5.78;;;1.17;;
26908;SDS011;14477;51.038;4.588;2023-02-01T16:38:50;6.35;;;1.50;;
26908;SDS011;14477;51.038;4.588;2023-02-01T16:41:19;4.83;;;1.30;;
26908;SDS011;14477;51.038;4.588;2023-02-01T16:43:50;5.20;;;1.30;;
26908;SDS011;14477;51.038;4.588;2023-02-01T16:46:18;4.70;;;1.20;;
26908;SDS011;14477;51.038;4.588;2023-02-01T16:49:22;5.35;;;1.40;;
26908;SDS011;14477;51.038;4.588;2023-02-01T16:51:47;3.42;;;1.23;;
26908;SDS011;14477;51.038;4.588;2023-02-01T16:54:16;3.53;;;1.30;;
26908;SDS011;14477;51.038;4.588;2023-02-01T16:56:44;5.43;;;1.27;;
26908;SDS011;14477;51.038;4.588;2023-02-01T16:59:11;5.93;;;1.60;;
26908;SDS011;14477;51.038;4.588;2023-02-01T17:01:37;5.03;;;1.10;;
26908;SDS011;14477;51.038;4.588;2023-02-01T17:04:04;4.28;;;1.20;;
26908;SDS011;14477;51.038;4.588;2023-02-01T17:06:30;3.90;;;1.20;;
26908;SDS011;14477;51.038;4.588;2023-02-01T17:08:58;4.03;;;1.00;;
26908;SDS011;14477;51.038;4.588;2023-02-01T17:11:25;4.07;;;1.08;;
26908;SDS011;14477;51.038;4.588;2023-02-01T17:13:55;3.33;;;1.20;;
26908;SDS011;14477;51.038;4.588;2023-02-01T17:16:38;3.47;;;1.03;;
26908;SDS011;14477;51.038;4.588;2023-02-01T17:19:06;4.97;;;1.23;;
26908;SDS011;14477;51.038;4.588;2023-02-01T17:21:43;6.55;;;1.30;;
26908;SDS011;14477;51.038;4.588;2023-02-01T17:24:14;4.63;;;1.20;;
26908;SDS011;14477;51.038;4.588;2023-02-01T17:26:42;3.30;;;1.20;;
26908;SDS011;14477;51.038;4.588;2023-02-01T17:29:09;5.53;;;1.30;;
26908;SDS011;14477;51.038;4.588;2023-02-01T17:31:37;6.57;;;1.30;;
26908;SDS011;14477;51.038;4.588;2023-02-01T17:34:10;4.13;;;1.30;;
26908;SDS011;14477;51.038;4.588;2023-02-01T17:36:36;4.97;;;1.23;;
26908;SDS011;14477;51.038;4.588;2023-02-01T17:39:04;5.32;;;1.40;;
26908;SDS011;14477;51.038;4.588;2023-02-01T17:41:30;6.13;;;1.40;;
26908;SDS011;14477;51.038;4.588;2023-02-01T17:43:55;6.03;;;1.48;;
26908;SDS011;14477;51.038;4.588;2023-02-01T17:46:21;6.00;;;1.40;;
26908;SDS011;14477;51.038;4.588;2023-02-01T17:48:54;5.43;;;1.40;;
26908;SDS011;14477;51.038;4.588;2023-02-01T17:51:21;7.13;;;1.80;;
26908;SDS011;14477;51.038;4.588;2023-02-01T17:53:54;7.07;;;1.80;;
26908;SDS011;14477;51.038;4.588;2023-02-01T17:56:20;4.50;;;1.43;;
26908;SDS011;14477;51.038;4.588;2023-02-01T17:58:48;5.05;;;1.58;;
26908;SDS011;14477;51.038;4.588;2023-02-01T18:01:17;4.32;;;1.50;;
26908;SDS011;14477;51.038;4.588;2023-02-01T18:03:46;5.53;;;1.40;;
26908;SDS011;14477;51.038;4.588;2023-02-01T18:06:14;5.03;;;1.30;;